Terminal Aerodrome Forecast
Issued by NWS Sterling, VA

Current Version | Previous Version | Graphics & Text | Print | Product List | Glossary On
Versions: 1 2 3 4 5 6 7 8 9 10 11 12
972
FTUS41 KLWX 051121
TAFMRB
TAF
KMRB 051121Z 0512/0612 32011G18KT P6SM BKN045
     FM051600 32014G21KT P6SM SCT050
     FM052300 30008KT P6SM SKC
     FM060300 29004KT P6SM FEW250=

USA.gov is the U.S. government's official web portal to all federal, state and local government web resources and services.